createdAt,value
2022-12-25T00:00:05.445Z,994.12
2022-12-25T00:01:05.460Z,994.12
2022-12-25T00:02:05.404Z,994.09
2022-12-25T00:03:05.423Z,994.04
2022-12-25T00:04:05.510Z,994.00
2022-12-25T00:05:05.395Z,994.08
2022-12-25T00:06:05.359Z,994.07
2022-12-25T00:07:05.398Z,994.14
2022-12-25T00:08:05.347Z,994.20
2022-12-25T00:09:05.378Z,994.21
2022-12-25T00:10:05.357Z,994.24
2022-12-25T00:11:05.337Z,994.22
2022-12-25T00:12:05.344Z,994.19
2022-12-25T00:13:05.327Z,994.12
2022-12-25T00:14:05.305Z,994.09
2022-12-25T00:15:05.361Z,994.13
2022-12-25T00:16:05.383Z,994.15
2022-12-25T00:17:05.299Z,994.15
2022-12-25T00:18:05.284Z,994.13
2022-12-25T00:19:05.296Z,994.11
2022-12-25T00:20:05.332Z,994.12
2022-12-25T00:21:05.348Z,994.08
2022-12-25T00:22:05.267Z,994.16
2022-12-25T00:23:05.264Z,994.16
2022-12-25T00:24:05.302Z,994.20
2022-12-25T00:25:05.393Z,994.17
2022-12-25T00:26:05.276Z,994.19
2022-12-25T00:27:05.411Z,994.16
2022-12-25T00:28:05.249Z,994.17
2022-12-25T00:29:05.232Z,994.21
2022-12-25T00:30:05.223Z,994.19
2022-12-25T00:31:05.327Z,994.20
2022-12-25T00:32:05.254Z,994.25
2022-12-25T00:33:05.203Z,994.24
2022-12-25T00:34:05.209Z,994.22
2022-12-25T00:35:05.208Z,994.19
2022-12-25T00:36:05.235Z,994.29
2022-12-25T00:37:05.228Z,994.23
2022-12-25T00:38:05.182Z,994.22
2022-12-25T00:39:05.260Z,994.23
2022-12-25T00:40:05.169Z,994.24
2022-12-25T00:41:05.200Z,994.27
2022-12-25T00:42:05.224Z,994.27
2022-12-25T00:43:05.173Z,994.32
2022-12-25T00:44:05.205Z,994.31
2022-12-25T00:45:05.175Z,994.34
2022-12-25T00:46:05.214Z,994.31
2022-12-25T00:47:05.243Z,994.29
2022-12-25T00:48:05.183Z,994.35
2022-12-25T00:49:05.139Z,994.27
2022-12-25T00:50:05.150Z,994.35
2022-12-25T00:51:05.138Z,994.38
2022-12-25T00:52:05.132Z,994.40
2022-12-25T00:53:05.159Z,994.37
2022-12-25T00:54:05.152Z,994.40
2022-12-25T00:55:05.115Z,994.39
2022-12-25T00:56:05.122Z,994.36
2022-12-25T00:57:05.111Z,994.41
2022-12-25T00:58:05.209Z,994.40
2022-12-25T00:59:05.104Z,994.48
2022-12-25T01:00:05.100Z,994.42
2022-12-25T01:01:06.137Z,994.45
2022-12-25T01:02:05.217Z,994.47
2022-12-25T01:03:05.109Z,994.42
2022-12-25T01:04:05.065Z,994.41
2022-12-25T01:05:05.076Z,994.41
2022-12-25T01:06:05.083Z,994.37
2022-12-25T01:07:05.059Z,994.34
2022-12-25T01:08:05.091Z,994.35
2022-12-25T01:09:05.080Z,994.30
2022-12-25T01:10:05.083Z,994.32
2022-12-25T01:11:05.041Z,994.31
2022-12-25T01:12:05.040Z,994.38
2022-12-25T01:13:05.054Z,994.37
2022-12-25T01:14:05.048Z,994.36
2022-12-25T01:15:05.047Z,994.30
2022-12-25T01:16:05.091Z,994.37
2022-12-25T01:17:05.027Z,994.45
2022-12-25T01:18:07.871Z,994.36
2022-12-25T01:19:06.031Z,994.40
2022-12-25T01:20:05.022Z,994.44
2022-12-25T01:21:05.023Z,994.39
2022-12-25T01:22:04.983Z,994.37
2022-12-25T01:23:05.018Z,994.41
2022-12-25T01:24:04.982Z,994.43
2022-12-25T01:25:05.138Z,994.44
2022-12-25T01:26:04.974Z,994.45
2022-12-25T01:27:04.975Z,994.44
2022-12-25T01:28:04.971Z,994.45
2022-12-25T01:29:05.027Z,994.49
2022-12-25T01:30:05.028Z,994.44
2022-12-25T01:31:04.956Z,994.31
2022-12-25T01:32:05.021Z,994.49
2022-12-25T01:33:04.962Z,994.30
2022-12-25T01:34:04.956Z,994.38
2022-12-25T01:35:04.962Z,994.53
2022-12-25T01:36:04.965Z,994.55
2022-12-25T01:37:04.947Z,994.53
2022-12-25T01:38:04.959Z,994.54
2022-12-25T01:39:04.943Z,994.59
2022-12-25T01:40:04.935Z,994.57
2022-12-25T01:41:04.941Z,994.58
2022-12-25T01:42:04.895Z,994.53
2022-12-25T01:43:04.946Z,994.57
2022-12-25T01:44:04.910Z,994.53
2022-12-25T01:45:04.901Z,994.50
2022-12-25T01:46:05.007Z,994.50
2022-12-25T01:47:04.911Z,994.46
2022-12-25T01:48:04.926Z,994.43
2022-12-25T01:49:04.870Z,994.45
2022-12-25T01:50:04.885Z,994.43
2022-12-25T01:51:04.863Z,994.44
2022-12-25T01:52:04.919Z,994.43
2022-12-25T01:53:04.898Z,994.43
2022-12-25T01:54:04.887Z,994.47
2022-12-25T01:55:04.907Z,994.47
2022-12-25T01:56:04.857Z,994.51
2022-12-25T01:57:04.861Z,994.46
2022-12-25T01:58:04.841Z,994.44
2022-12-25T01:59:04.944Z,994.48
2022-12-25T02:00:04.855Z,994.43
2022-12-25T02:01:04.839Z,994.47
2022-12-25T02:02:04.942Z,994.49
2022-12-25T02:03:04.856Z,994.53
2022-12-25T02:04:05.139Z,994.53
2022-12-25T02:05:04.885Z,994.51
2022-12-25T02:06:04.799Z,994.55
2022-12-25T02:07:04.807Z,994.54
2022-12-25T02:08:04.811Z,994.55
2022-12-25T02:09:04.793Z,994.51
2022-12-25T02:10:04.801Z,994.54
2022-12-25T02:11:04.771Z,994.42
2022-12-25T02:12:04.753Z,994.50
2022-12-25T02:13:04.829Z,994.38
2022-12-25T02:14:04.767Z,994.36
2022-12-25T02:15:06.127Z,994.34
2022-12-25T02:16:05.831Z,994.32
2022-12-25T02:17:04.842Z,994.30
2022-12-25T02:18:04.750Z,994.32
2022-12-25T02:19:04.761Z,994.26
2022-12-25T02:20:05.609Z,994.26
2022-12-25T02:21:04.731Z,994.30
2022-12-25T02:22:04.732Z,994.30
2022-12-25T02:23:05.630Z,994.18
2022-12-25T02:24:04.796Z,994.23
2022-12-25T02:25:04.825Z,994.22
2022-12-25T02:26:04.721Z,994.33
2022-12-25T02:27:04.709Z,994.36
2022-12-25T02:28:04.729Z,994.29
2022-12-25T02:29:04.701Z,994.36
2022-12-25T02:30:04.766Z,994.25
2022-12-25T02:31:04.691Z,994.29
2022-12-25T02:32:04.756Z,994.30
2022-12-25T02:33:04.690Z,994.28
2022-12-25T02:34:04.683Z,994.30
2022-12-25T02:35:04.671Z,994.31
2022-12-25T02:36:04.878Z,994.29
2022-12-25T02:37:04.696Z,994.29
2022-12-25T02:38:04.660Z,994.23
2022-12-25T02:39:04.674Z,994.23
2022-12-25T02:40:04.678Z,994.22
2022-12-25T02:41:04.691Z,994.20
2022-12-25T02:42:04.679Z,994.23
2022-12-25T02:43:04.654Z,994.18
2022-12-25T02:44:04.634Z,994.17
2022-12-25T02:45:04.613Z,994.17
2022-12-25T02:46:04.639Z,994.25
2022-12-25T02:47:04.617Z,994.25
2022-12-25T02:48:04.629Z,994.20
2022-12-25T02:49:04.613Z,994.22
2022-12-25T02:50:04.590Z,994.22
2022-12-25T02:51:04.612Z,994.17
2022-12-25T02:52:04.593Z,994.21
2022-12-25T02:53:04.615Z,994.22
2022-12-25T02:54:04.594Z,994.11
2022-12-25T02:55:04.562Z,994.09
2022-12-25T02:56:04.566Z,994.07
2022-12-25T02:57:04.690Z,994.10
2022-12-25T02:58:04.666Z,994.14
2022-12-25T02:59:04.582Z,994.16
2022-12-25T03:00:04.559Z,994.12
2022-12-25T03:01:04.637Z,994.12
2022-12-25T03:02:04.676Z,994.15
2022-12-25T03:03:04.577Z,994.17
2022-12-25T03:04:04.539Z,994.14
2022-12-25T03:05:04.529Z,994.18
2022-12-25T03:06:04.555Z,994.26
2022-12-25T03:07:04.539Z,994.25
2022-12-25T03:08:04.610Z,994.27
2022-12-25T03:09:04.524Z,994.27
2022-12-25T03:10:04.517Z,994.28
2022-12-25T03:11:04.524Z,994.27
2022-12-25T03:12:04.485Z,994.31
2022-12-25T03:13:04.502Z,994.28
2022-12-25T03:14:04.475Z,994.32
2022-12-25T03:15:04.478Z,994.32
2022-12-25T03:16:04.502Z,994.23
2022-12-25T03:17:04.510Z,994.28
2022-12-25T03:18:04.473Z,994.30
2022-12-25T03:19:04.505Z,994.29
2022-12-25T03:20:04.471Z,994.32
2022-12-25T03:21:04.473Z,994.32
2022-12-25T03:22:04.451Z,994.26
2022-12-25T03:23:04.431Z,994.27
2022-12-25T03:24:04.484Z,994.28
2022-12-25T03:25:04.561Z,994.28
2022-12-25T03:26:04.440Z,994.27
2022-12-25T03:27:04.404Z,994.29
2022-12-25T03:28:04.430Z,994.32
2022-12-25T03:29:04.457Z,994.28
2022-12-25T03:30:04.427Z,994.26
2022-12-25T03:31:04.580Z,994.29
2022-12-25T03:32:04.434Z,994.29
2022-12-25T03:33:23.191Z,994.24
2022-12-25T03:34:06.461Z,994.23
2022-12-25T03:35:04.397Z,994.25
2022-12-25T03:36:04.373Z,994.24
2022-12-25T03:37:04.395Z,994.30
2022-12-25T03:38:04.410Z,994.28
2022-12-25T03:39:04.393Z,994.30
2022-12-25T03:40:04.385Z,994.27
2022-12-25T03:41:04.390Z,994.24
2022-12-25T03:42:04.372Z,994.25
2022-12-25T03:43:04.398Z,994.26
2022-12-25T03:44:04.393Z,994.23
2022-12-25T03:45:04.356Z,994.23
2022-12-25T03:46:04.375Z,994.23
2022-12-25T03:47:04.354Z,994.25
2022-12-25T03:48:04.375Z,994.20
2022-12-25T03:49:04.342Z,994.22
2022-12-25T03:50:04.336Z,994.20
2022-12-25T03:51:04.305Z,994.19
2022-12-25T03:52:04.344Z,994.17
2022-12-25T03:53:04.338Z,994.22
2022-12-25T03:54:04.309Z,994.16
2022-12-25T03:55:04.315Z,994.18
2022-12-25T03:56:04.304Z,994.24
2022-12-25T03:57:04.287Z,994.18
2022-12-25T03:58:04.331Z,994.25
2022-12-25T03:59:04.352Z,994.25
2022-12-25T04:00:04.302Z,994.25
2022-12-25T04:01:04.358Z,994.26
2022-12-25T04:02:04.413Z,994.22
2022-12-25T04:03:04.337Z,994.25
2022-12-25T04:04:05.272Z,994.20
2022-12-25T04:05:04.277Z,994.17
2022-12-25T04:06:04.314Z,994.11
2022-12-25T04:07:04.259Z,994.15
2022-12-25T04:08:04.262Z,994.14
2022-12-25T04:09:04.258Z,994.10
2022-12-25T04:10:04.217Z,994.11
2022-12-25T04:11:04.383Z,994.09
2022-12-25T04:12:04.237Z,994.11
2022-12-25T04:13:04.227Z,994.11
2022-12-25T04:14:04.267Z,994.04
2022-12-25T04:15:04.248Z,994.01
2022-12-25T04:16:04.301Z,993.98
2022-12-25T04:17:04.180Z,993.93
2022-12-25T04:18:04.204Z,993.96
2022-12-25T04:19:04.220Z,993.98
2022-12-25T04:20:04.219Z,993.97
2022-12-25T04:21:04.217Z,994.00
2022-12-25T04:22:04.169Z,994.05
2022-12-25T04:23:04.226Z,993.98
2022-12-25T04:24:04.168Z,994.02
2022-12-25T04:25:04.247Z,994.01
2022-12-25T04:26:04.189Z,993.99
2022-12-25T04:27:04.167Z,993.92
2022-12-25T04:28:05.162Z,993.92
2022-12-25T04:29:04.143Z,993.93
2022-12-25T04:30:04.191Z,993.86
2022-12-25T04:31:04.177Z,993.91
2022-12-25T04:32:04.170Z,993.88
2022-12-25T04:33:04.192Z,993.86
2022-12-25T04:34:04.142Z,993.91
2022-12-25T04:35:04.159Z,993.82
2022-12-25T04:36:04.142Z,993.91
2022-12-25T04:37:04.110Z,993.88
2022-12-25T04:38:04.126Z,993.88
2022-12-25T04:39:04.151Z,993.86
2022-12-25T04:40:04.109Z,993.83
2022-12-25T04:41:04.153Z,993.78
2022-12-25T04:42:04.100Z,993.79
2022-12-25T04:43:04.150Z,993.76
2022-12-25T04:44:04.100Z,993.75
2022-12-25T04:45:04.105Z,993.70
2022-12-25T04:46:04.106Z,993.74
2022-12-25T04:47:10.745Z,993.74
2022-12-25T04:48:06.060Z,993.75
2022-12-25T04:49:04.066Z,993.74
2022-12-25T04:50:04.075Z,993.71
2022-12-25T04:51:04.049Z,993.64
2022-12-25T04:52:04.065Z,993.64
2022-12-25T04:53:04.054Z,993.60
2022-12-25T04:54:04.039Z,993.50
2022-12-25T04:55:04.040Z,993.60
2022-12-25T04:56:04.045Z,993.58
2022-12-25T04:57:04.042Z,993.57
2022-12-25T04:58:04.026Z,993.60
2022-12-25T04:59:04.023Z,993.60
2022-12-25T05:00:04.025Z,993.60
2022-12-25T05:01:04.116Z,993.64
2022-12-25T05:02:04.099Z,993.69
2022-12-25T05:03:04.081Z,993.78
2022-12-25T05:04:04.003Z,993.79
2022-12-25T05:05:04.019Z,993.81
2022-12-25T05:06:04.048Z,993.83
2022-12-25T05:07:04.050Z,993.83
2022-12-25T05:08:04.000Z,993.78
2022-12-25T05:09:03.981Z,993.76
2022-12-25T05:10:04.003Z,993.75
2022-12-25T05:11:03.983Z,993.80
2022-12-25T05:12:04.006Z,993.74
2022-12-25T05:13:03.953Z,993.80
2022-12-25T05:14:03.963Z,993.79
2022-12-25T05:15:03.953Z,993.84
2022-12-25T05:16:04.033Z,993.87
2022-12-25T05:17:03.965Z,993.79
2022-12-25T05:18:03.978Z,993.85
2022-12-25T05:19:03.951Z,993.82
2022-12-25T05:20:03.971Z,993.85
2022-12-25T05:21:03.962Z,993.86
2022-12-25T05:22:03.918Z,993.87
2022-12-25T05:23:03.933Z,993.92
2022-12-25T05:24:03.902Z,993.88
2022-12-25T05:25:03.952Z,993.88
2022-12-25T05:26:03.886Z,993.94
2022-12-25T05:27:03.910Z,993.95
2022-12-25T05:28:03.886Z,993.95
2022-12-25T05:29:03.915Z,994.01
2022-12-25T05:30:03.899Z,993.98
2022-12-25T05:31:03.980Z,994.03
2022-12-25T05:32:04.884Z,994.04
2022-12-25T05:33:03.949Z,994.09
2022-12-25T05:34:03.856Z,994.06
2022-12-25T05:35:03.911Z,994.09
2022-12-25T05:36:03.854Z,994.04
2022-12-25T05:37:03.868Z,994.09
2022-12-25T05:38:03.843Z,994.00
2022-12-25T05:39:03.835Z,994.02
2022-12-25T05:40:03.809Z,994.00
2022-12-25T05:41:03.829Z,994.00
2022-12-25T05:42:03.834Z,994.03
2022-12-25T05:43:03.823Z,994.02
2022-12-25T05:44:03.860Z,994.01
2022-12-25T05:45:03.818Z,994.01
2022-12-25T05:46:03.830Z,994.03
2022-12-25T05:47:03.883Z,993.98
2022-12-25T05:48:03.833Z,993.98
2022-12-25T05:49:03.815Z,993.95
2022-12-25T05:50:03.781Z,993.98
2022-12-25T05:51:03.786Z,993.94
2022-12-25T05:52:03.806Z,993.92
2022-12-25T05:53:08.095Z,993.93
2022-12-25T05:54:04.795Z,993.93
2022-12-25T05:55:03.746Z,993.93
2022-12-25T05:56:03.783Z,993.93
2022-12-25T05:57:03.763Z,994.00
2022-12-25T05:58:03.784Z,993.91
2022-12-25T05:59:03.772Z,993.93
2022-12-25T06:00:03.730Z,993.91
2022-12-25T06:01:03.738Z,993.93
2022-12-25T06:02:03.949Z,993.86
2022-12-25T06:03:03.851Z,993.85
2022-12-25T06:04:10.180Z,993.90
2022-12-25T06:05:05.778Z,993.89
2022-12-25T06:06:03.701Z,993.93
2022-12-25T06:07:03.729Z,993.87
2022-12-25T06:08:03.721Z,993.80
2022-12-25T06:09:03.729Z,993.87
2022-12-25T06:10:03.739Z,993.86
2022-12-25T06:11:03.694Z,993.82
2022-12-25T06:12:03.694Z,993.84
2022-12-25T06:13:03.688Z,993.84
2022-12-25T06:14:03.672Z,993.89
2022-12-25T06:15:03.680Z,993.85
2022-12-25T06:16:03.686Z,993.84
2022-12-25T06:17:03.735Z,993.82
2022-12-25T06:18:03.645Z,993.80
2022-12-25T06:19:03.656Z,993.81
2022-12-25T06:20:03.686Z,993.79
2022-12-25T06:21:03.658Z,993.82
2022-12-25T06:22:03.628Z,993.78
2022-12-25T06:23:03.625Z,993.77
2022-12-25T06:24:03.683Z,993.73
2022-12-25T06:25:03.646Z,993.72
2022-12-25T06:26:03.651Z,993.71
2022-12-25T06:27:03.699Z,993.66
2022-12-25T06:28:03.672Z,993.67
2022-12-25T06:29:03.616Z,993.67
2022-12-25T06:30:03.636Z,993.65
2022-12-25T06:31:03.732Z,993.65
2022-12-25T06:32:03.680Z,993.70
2022-12-25T06:33:03.575Z,993.65
2022-12-25T06:34:03.573Z,993.56
2022-12-25T06:35:03.593Z,993.59
2022-12-25T06:36:03.621Z,993.61
2022-12-25T06:37:03.569Z,993.53
2022-12-25T06:38:03.573Z,993.53
2022-12-25T06:39:03.584Z,993.58
2022-12-25T06:40:03.541Z,993.56
2022-12-25T06:41:03.565Z,993.56
2022-12-25T06:42:03.549Z,993.65
2022-12-25T06:43:03.586Z,993.62
2022-12-25T06:44:03.548Z,993.65
2022-12-25T06:45:03.535Z,993.68
2022-12-25T06:46:03.597Z,993.65
2022-12-25T06:47:03.551Z,993.74
2022-12-25T06:48:03.537Z,993.67
2022-12-25T06:49:03.608Z,993.70
2022-12-25T06:50:03.514Z,993.70
2022-12-25T06:51:03.549Z,993.73
2022-12-25T06:52:03.487Z,993.67
2022-12-25T06:53:03.525Z,993.69
2022-12-25T06:54:03.483Z,993.68
2022-12-25T06:55:03.507Z,993.67
2022-12-25T06:56:03.484Z,993.61
2022-12-25T06:57:03.500Z,993.59
2022-12-25T06:58:03.481Z,993.57
2022-12-25T06:59:03.543Z,993.58
2022-12-25T07:00:03.502Z,993.54
2022-12-25T07:01:03.462Z,993.50
2022-12-25T07:02:03.587Z,993.46
2022-12-25T07:03:03.522Z,993.48
2022-12-25T07:04:03.462Z,993.43
2022-12-25T07:05:03.441Z,993.45
2022-12-25T07:06:03.434Z,993.44
2022-12-25T07:07:08.746Z,993.45
2022-12-25T07:08:05.407Z,993.50
2022-12-25T07:09:03.403Z,993.47
2022-12-25T07:10:03.440Z,993.47
2022-12-25T07:11:03.423Z,993.50
2022-12-25T07:12:03.435Z,993.44
2022-12-25T07:13:04.408Z,993.43
2022-12-25T07:14:03.393Z,993.43
2022-12-25T07:15:03.404Z,993.39
2022-12-25T07:16:03.409Z,993.40
2022-12-25T07:17:03.432Z,993.36
2022-12-25T07:18:03.408Z,993.33
2022-12-25T07:19:03.377Z,993.30
2022-12-25T07:20:03.385Z,993.33
2022-12-25T07:21:03.356Z,993.31
2022-12-25T07:22:03.381Z,993.37
2022-12-25T07:23:03.342Z,993.37
2022-12-25T07:24:03.382Z,993.36
2022-12-25T07:25:03.378Z,993.39
2022-12-25T07:26:03.336Z,993.44
2022-12-25T07:27:03.375Z,993.44
2022-12-25T07:28:03.321Z,993.52
2022-12-25T07:29:03.317Z,993.55
2022-12-25T07:30:03.343Z,993.54
2022-12-25T07:31:03.311Z,993.56
2022-12-25T07:32:03.385Z,993.61
2022-12-25T07:33:03.302Z,993.55
2022-12-25T07:34:03.324Z,993.58
2022-12-25T07:35:03.341Z,993.57
2022-12-25T07:36:03.311Z,993.58
2022-12-25T07:37:03.314Z,993.52
2022-12-25T07:38:04.283Z,993.48
2022-12-25T07:39:03.429Z,993.43
2022-12-25T07:40:03.520Z,993.46
2022-12-25T07:41:03.308Z,993.40
2022-12-25T07:42:03.271Z,993.38
2022-12-25T07:43:03.280Z,993.35
2022-12-25T07:44:03.268Z,993.34
2022-12-25T07:45:03.255Z,993.28
2022-12-25T07:46:03.263Z,993.27
2022-12-25T07:47:03.246Z,993.23
2022-12-25T07:48:05.764Z,993.16
2022-12-25T07:49:04.229Z,993.15
2022-12-25T07:50:03.251Z,993.11
2022-12-25T07:51:03.220Z,993.04
2022-12-25T07:52:03.256Z,993.02
2022-12-25T07:53:03.242Z,992.96
2022-12-25T07:54:03.201Z,992.94
2022-12-25T07:55:03.218Z,992.88
2022-12-25T07:56:03.232Z,992.86
2022-12-25T07:57:03.263Z,992.87
2022-12-25T07:58:03.206Z,992.80
2022-12-25T07:59:03.204Z,992.81
2022-12-25T08:00:03.168Z,992.85
2022-12-25T08:01:03.247Z,992.86
2022-12-25T08:02:03.460Z,992.90
2022-12-25T08:03:03.316Z,992.85
2022-12-25T08:04:03.300Z,992.83
2022-12-25T08:05:03.150Z,992.84
2022-12-25T08:06:03.150Z,992.83
2022-12-25T08:07:03.141Z,992.80
2022-12-25T08:08:03.131Z,992.80
2022-12-25T08:09:03.184Z,992.76
2022-12-25T08:10:03.139Z,992.87
2022-12-25T08:11:03.129Z,992.88
2022-12-25T08:12:03.121Z,992.89
2022-12-25T08:13:04.026Z,992.94
2022-12-25T08:14:03.138Z,992.96
2022-12-25T08:15:03.120Z,993.01
2022-12-25T08:16:03.153Z,993.09
2022-12-25T08:17:03.203Z,993.09
2022-12-25T08:18:03.146Z,993.13
2022-12-25T08:19:03.089Z,993.22
2022-12-25T08:20:03.127Z,993.15
2022-12-25T08:21:03.074Z,993.14
2022-12-25T08:22:03.070Z,993.01
2022-12-25T08:23:03.079Z,993.04
2022-12-25T08:24:03.174Z,993.09
2022-12-25T08:25:03.063Z,993.15
2022-12-25T08:26:05.412Z,993.15
2022-12-25T08:27:04.097Z,993.22
2022-12-25T08:28:03.057Z,993.11
2022-12-25T08:29:03.070Z,993.19
2022-12-25T08:30:03.112Z,993.23
2022-12-25T08:31:03.095Z,993.18
2022-12-25T08:32:03.080Z,993.19
2022-12-25T08:33:03.021Z,993.19
2022-12-25T08:34:03.066Z,993.20
2022-12-25T08:35:03.003Z,993.17
2022-12-25T08:36:03.058Z,993.16
2022-12-25T08:37:03.033Z,993.22
2022-12-25T08:38:03.014Z,993.15
2022-12-25T08:39:03.596Z,993.13
2022-12-25T08:40:04.024Z,993.14
2022-12-25T08:41:02.989Z,993.11
2022-12-25T08:42:02.978Z,993.17
2022-12-25T08:43:02.980Z,993.18
2022-12-25T08:44:03.033Z,993.18
2022-12-25T08:45:02.989Z,993.14
2022-12-25T08:46:03.000Z,993.03
2022-12-25T08:47:02.992Z,993.06
2022-12-25T08:48:02.984Z,993.03
2022-12-25T08:49:03.949Z,993.08
2022-12-25T08:50:03.006Z,992.98
2022-12-25T08:51:03.002Z,993.01
2022-12-25T08:52:02.973Z,993.00
2022-12-25T08:53:02.979Z,992.97
2022-12-25T08:54:02.940Z,992.93
2022-12-25T08:55:02.962Z,992.89
2022-12-25T08:56:02.921Z,992.92
2022-12-25T08:57:03.299Z,992.92
2022-12-25T08:58:03.905Z,992.95
2022-12-25T08:59:02.906Z,992.99
2022-12-25T09:00:02.906Z,993.02
2022-12-25T09:01:03.008Z,993.00
2022-12-25T09:02:02.964Z,993.04
2022-12-25T09:03:03.078Z,993.02
2022-12-25T09:04:02.878Z,993.08
2022-12-25T09:05:02.856Z,993.03
2022-12-25T09:06:02.881Z,993.03
2022-12-25T09:07:02.893Z,993.01
2022-12-25T09:08:02.893Z,992.98
2022-12-25T09:09:02.884Z,992.98
2022-12-25T09:10:02.856Z,993.01
2022-12-25T09:11:02.845Z,992.90
2022-12-25T09:12:02.901Z,992.81
2022-12-25T09:13:02.884Z,992.85
2022-12-25T09:14:02.857Z,992.83
2022-12-25T09:15:02.831Z,992.75
2022-12-25T09:16:02.865Z,992.74
2022-12-25T09:17:02.835Z,992.67
2022-12-25T09:18:02.826Z,992.69
2022-12-25T09:19:02.840Z,992.66
2022-12-25T09:20:02.806Z,992.64
2022-12-25T09:21:02.811Z,992.58
2022-12-25T09:22:02.806Z,992.63
2022-12-25T09:23:02.979Z,992.63
2022-12-25T09:24:02.853Z,992.65
2022-12-25T09:25:02.822Z,992.52
2022-12-25T09:26:02.782Z,992.57
2022-12-25T09:27:02.783Z,992.57
2022-12-25T09:28:02.770Z,992.62
2022-12-25T09:29:02.826Z,992.66
2022-12-25T09:30:02.787Z,992.66
2022-12-25T09:31:02.859Z,992.62
2022-12-25T09:32:02.743Z,992.60
2022-12-25T09:33:02.759Z,992.63
2022-12-25T09:34:02.737Z,992.59
2022-12-25T09:35:02.781Z,992.63
2022-12-25T09:36:02.735Z,992.66
2022-12-25T09:37:02.754Z,992.64
2022-12-25T09:38:02.813Z,992.71
2022-12-25T09:39:02.723Z,992.69
2022-12-25T09:40:02.703Z,992.69
2022-12-25T09:41:02.714Z,992.60
2022-12-25T09:42:02.724Z,992.65
2022-12-25T09:43:02.690Z,992.64
2022-12-25T09:44:02.754Z,992.65
2022-12-25T09:45:02.809Z,992.60
2022-12-25T09:46:02.771Z,992.56
2022-12-25T09:47:02.673Z,992.53
2022-12-25T09:48:02.716Z,992.54
2022-12-25T09:49:02.671Z,992.52
2022-12-25T09:50:02.819Z,992.58
2022-12-25T09:51:02.694Z,992.54
2022-12-25T09:52:02.719Z,992.59
2022-12-25T09:53:02.689Z,992.56
2022-12-25T09:54:02.652Z,992.55
2022-12-25T09:55:02.683Z,992.62
2022-12-25T09:56:02.681Z,992.56
2022-12-25T09:57:02.631Z,992.47
2022-12-25T09:58:02.647Z,992.44
2022-12-25T09:59:02.639Z,992.33
2022-12-25T10:00:02.640Z,992.36
2022-12-25T10:01:02.641Z,992.32
2022-12-25T10:02:02.813Z,992.42
2022-12-25T10:03:02.827Z,992.45
2022-12-25T10:04:02.600Z,992.42
2022-12-25T10:05:02.740Z,992.44
2022-12-25T10:06:02.595Z,992.41
2022-12-25T10:07:02.607Z,992.33
2022-12-25T10:08:02.594Z,992.26
2022-12-25T10:09:02.648Z,992.24
2022-12-25T10:10:02.580Z,992.27
2022-12-25T10:11:02.568Z,992.22
2022-12-25T10:12:02.571Z,992.33
2022-12-25T10:13:02.561Z,992.34
2022-12-25T10:14:02.593Z,992.35
2022-12-25T10:15:02.568Z,992.39
2022-12-25T10:16:02.570Z,992.37
2022-12-25T10:17:02.560Z,992.36
2022-12-25T10:18:02.572Z,992.36
2022-12-25T10:19:02.558Z,992.33
2022-12-25T10:20:02.526Z,992.37
2022-12-25T10:21:04.694Z,992.37
2022-12-25T10:22:02.528Z,992.42
2022-12-25T10:23:02.510Z,992.43
2022-12-25T10:24:02.486Z,992.46
2022-12-25T10:25:02.560Z,992.46
2022-12-25T10:26:02.522Z,992.46
2022-12-25T10:27:02.485Z,992.45
2022-12-25T10:28:02.483Z,992.43
2022-12-25T10:29:02.476Z,992.48
2022-12-25T10:30:02.496Z,992.47
2022-12-25T10:31:02.528Z,992.45
2022-12-25T10:32:02.473Z,992.49
2022-12-25T10:33:02.460Z,992.48
2022-12-25T10:34:02.454Z,992.41
2022-12-25T10:35:02.436Z,992.32
2022-12-25T10:36:02.525Z,992.32
2022-12-25T10:37:02.451Z,992.29
2022-12-25T10:38:02.441Z,992.29
2022-12-25T10:39:02.510Z,992.31
2022-12-25T10:40:02.446Z,992.30
2022-12-25T10:41:02.441Z,992.33
2022-12-25T10:42:02.450Z,992.32
2022-12-25T10:43:02.406Z,992.32
2022-12-25T10:44:03.400Z,992.29
2022-12-25T10:45:02.412Z,992.25
2022-12-25T10:46:02.425Z,992.28
2022-12-25T10:47:02.412Z,992.27
2022-12-25T10:48:07.132Z,992.19
2022-12-25T10:49:04.470Z,992.09
2022-12-25T10:50:02.362Z,992.02
2022-12-25T10:51:03.371Z,991.97
2022-12-25T10:52:02.394Z,991.87
2022-12-25T10:53:02.468Z,991.67
2022-12-25T10:54:02.346Z,991.71
2022-12-25T10:55:02.337Z,991.65
2022-12-25T10:56:02.333Z,991.70
2022-12-25T10:57:02.380Z,991.70
2022-12-25T10:58:02.340Z,991.60
2022-12-25T10:59:02.315Z,991.62
2022-12-25T11:00:02.339Z,991.63
2022-12-25T11:01:02.371Z,991.67
2022-12-25T11:02:02.432Z,991.73
2022-12-25T11:03:02.548Z,991.73
2022-12-25T11:04:02.394Z,991.74
2022-12-25T11:05:02.305Z,991.71
2022-12-25T11:06:02.302Z,991.69
2022-12-25T11:07:02.282Z,991.73
2022-12-25T11:08:02.343Z,991.71
2022-12-25T11:09:02.284Z,991.71
2022-12-25T11:10:05.127Z,991.65
2022-12-25T11:11:03.257Z,991.66
2022-12-25T11:12:02.262Z,991.56
2022-12-25T11:13:02.419Z,991.53
2022-12-25T11:14:02.379Z,991.52
2022-12-25T11:15:02.235Z,991.53
2022-12-25T11:16:02.319Z,991.55
2022-12-25T11:17:02.231Z,991.49
2022-12-25T11:18:02.221Z,991.54
2022-12-25T11:19:02.251Z,991.54
2022-12-25T11:20:02.212Z,991.49
2022-12-25T11:21:02.260Z,991.52
2022-12-25T11:22:02.220Z,991.47
2022-12-25T11:23:02.212Z,991.51
2022-12-25T11:24:02.225Z,991.47
2022-12-25T11:25:02.190Z,991.45
2022-12-25T11:26:02.217Z,991.41
2022-12-25T11:27:02.192Z,991.37
2022-12-25T11:28:02.186Z,991.36
2022-12-25T11:29:02.223Z,991.36
2022-12-25T11:30:02.174Z,991.33
2022-12-25T11:31:02.241Z,991.30
2022-12-25T11:32:02.191Z,991.26
2022-12-25T11:33:02.157Z,991.28
2022-12-25T11:34:02.156Z,991.27
2022-12-25T11:35:02.120Z,991.22
2022-12-25T11:36:02.253Z,991.24
2022-12-25T11:37:02.188Z,991.16
2022-12-25T11:38:02.138Z,991.19
2022-12-25T11:39:02.132Z,991.13
2022-12-25T11:40:02.123Z,991.14
2022-12-25T11:41:02.111Z,991.12
2022-12-25T11:42:02.116Z,991.14
2022-12-25T11:43:07.637Z,991.19
2022-12-25T11:44:04.092Z,991.22
2022-12-25T11:45:02.090Z,991.22
2022-12-25T11:46:02.099Z,991.27
2022-12-25T11:47:02.126Z,991.23
2022-12-25T11:48:02.129Z,991.27
2022-12-25T11:49:02.118Z,991.28
2022-12-25T11:50:02.077Z,991.33
2022-12-25T11:51:02.061Z,991.26
2022-12-25T11:52:02.131Z,991.33
2022-12-25T11:53:02.028Z,991.35
2022-12-25T11:54:02.067Z,991.43
2022-12-25T11:55:02.063Z,991.36
2022-12-25T11:56:02.054Z,991.36
2022-12-25T11:57:02.024Z,991.37
2022-12-25T11:58:02.026Z,991.35
2022-12-25T11:59:02.053Z,991.40
2022-12-25T12:00:02.084Z,991.37
2022-12-25T12:01:02.007Z,991.36
2022-12-25T12:02:02.082Z,991.30
2022-12-25T12:03:02.166Z,991.31
2022-12-25T12:04:02.043Z,991.32
2022-12-25T12:05:03.014Z,991.28
2022-12-25T12:06:01.978Z,991.21
2022-12-25T12:07:01.968Z,991.16
2022-12-25T12:08:01.982Z,991.15
2022-12-25T12:09:01.957Z,991.12
2022-12-25T12:10:01.998Z,991.17
2022-12-25T12:11:01.954Z,991.15
2022-12-25T12:12:01.973Z,991.17
2022-12-25T12:13:01.943Z,991.12
2022-12-25T12:14:01.926Z,991.15
2022-12-25T12:15:01.966Z,991.03
2022-12-25T12:16:01.965Z,991.03
2022-12-25T12:17:01.939Z,991.02
2022-12-25T12:18:01.914Z,991.01
2022-12-25T12:19:01.938Z,991.00
2022-12-25T12:20:01.945Z,990.96
2022-12-25T12:21:01.962Z,990.96
2022-12-25T12:22:01.892Z,990.79
2022-12-25T12:23:01.884Z,990.67
2022-12-25T12:24:01.902Z,990.59
2022-12-25T12:25:02.891Z,990.63
2022-12-25T12:26:01.922Z,990.69
2022-12-25T12:27:01.864Z,990.71
2022-12-25T12:28:05.534Z,990.64